Terminal Aerodrome Forecast
Issued by NWS

Home | Current Version | Previous Version | Text Only | Print | Product List | Glossary On
Versions: 1 2 3 4 5 6 7 8 9 10 11 12 13 14
386
FTUS42 KFFC 111720
TAFRYY
TAF
KRYY 111720Z 1118/1218 VRB03KT P6SM FEW050
     FM120000 00000KT P6SM SCT040 SCT200
     FM120900 00000KT P6SM BKN030
     FM121400 VRB03KT P6SM BKN025=

USA.gov is the U.S. government's official web portal to all federal, state and local government web resources and services.